• vieta
  • image
  • image
  • image
mod_vvisit_countermod_vvisit_countermod_vvisit_countermod_vvisit_countermod_vvisit_countermod_vvisit_counter
mod_vvisit_counterŠiandien74
mod_vvisit_counterVakar612
mod_vvisit_counterŠią savaitę1386
mod_vvisit_counterPraėjusią savaitę3366
mod_vvisit_counterŠį mėnesį7203
mod_vvisit_counterPraėjusį mėnesį17211
mod_vvisit_counterViso953200

Mes turime: 6 svečius, 3 bots online
Jūsų IP: 54.225.57.230
 , 
Šiandien: Rugp 15, 2018
Oro uostas / Įmonė

Apie įmonę

 

Savivaldybės įmonė Šiaulių oro uostas.

2003 m. lapkričio mėn. Šiaulių miesto savivaldybės tarybos sprendimu įsteigta Savivaldybės įmonė Šiaulių oro uostas, kuriai LR Vyriausybės nutarimu suteikta teisė aptarnauti civilinį susisiekimą kariniame Šiaulių aerodrome.

Įmonė yra ribotos civilinės atsakomybės viešasis juridinis asmuo.

Įmonės pagrindinė veikla – oro uosto eksploatavimas ir oro transporto paslaugos.

Svarbiausi veiklos uždaviniai – teikti viešąsias keleivių ir krovinių vežimo oro transportu paslaugas.

Įmonėje dirba 21 darbuotojas.


Įmonės struktūra:

 

Šiandien

Trečiadienis, 15 Rugpjūtis 2018

Orų prognozė aviacijai

[source: ADDS]
METAR
EYSA 150450Z 22005KT 6000 -RA SCT004 OVC020 17/17 Q1008 YLO2 TEMPO SCT006 YLO1 =
TAF
TAF EYSA 150200Z 1503/1512 25010KT 7000 BKN005 OVC020 TEMPO 1503/1505 1500 BR BKN003 TEMPO 1505/1512 3000 SHRA BKN013CB =
SR / SS: 03:03 / 18:01 UTC (EYSA 2018-08-15)

Paieška

Lankytojai

Mes turime 9 svečius online

tic logo lt